createdAt,value
2023-04-29T00:00:06.852Z,4.60
2023-04-29T00:02:59.363Z,4.90
2023-04-29T00:05:32.541Z,3.80
2023-04-29T00:08:05.172Z,3.70
2023-04-29T00:10:37.971Z,3.50
2023-04-29T00:13:10.282Z,3.70
2023-04-29T00:15:43.277Z,3.80
2023-04-29T00:18:15.678Z,3.30
2023-04-29T00:20:48.128Z,4.60
2023-04-29T00:23:20.482Z,4.40
2023-04-29T00:25:53.732Z,4.60
2023-04-29T00:28:26.930Z,4.90
2023-04-29T00:30:59.371Z,4.50
2023-04-29T00:33:31.739Z,4.50
2023-04-29T00:36:04.337Z,5.50
2023-04-29T00:38:36.633Z,8.10
2023-04-29T00:41:09.227Z,4.40
2023-04-29T00:43:41.668Z,5.30
2023-04-29T00:46:14.015Z,5.00
2023-04-29T00:48:46.395Z,4.70
2023-04-29T00:51:19.304Z,6.40
2023-04-29T00:53:51.972Z,5.20
2023-04-29T00:56:24.713Z,4.40
2023-04-29T00:58:57.016Z,4.30
2023-04-29T01:01:29.500Z,5.30
2023-04-29T01:04:02.375Z,4.30
2023-04-29T01:06:44.761Z,6.10
2023-04-29T01:09:29.222Z,5.80
2023-04-29T01:12:13.056Z,5.00
2023-04-29T01:14:49.790Z,4.50
2023-04-29T01:17:27.007Z,5.20
2023-04-29T01:20:00.459Z,6.10
2023-04-29T01:22:32.777Z,5.40
2023-04-29T01:25:06.087Z,5.10
2023-04-29T01:27:43.863Z,7.60
2023-04-29T01:30:31.742Z,4.90
2023-04-29T01:33:12.727Z,6.10
2023-04-29T01:36:07.113Z,6.20
2023-04-29T01:38:47.649Z,6.50
2023-04-29T01:41:24.859Z,5.60
2023-04-29T01:44:00.206Z,5.40
2023-04-29T01:46:34.026Z,5.80
2023-04-29T01:49:07.100Z,4.70
2023-04-29T01:51:39.521Z,5.60
2023-04-29T01:54:11.873Z,4.20
2023-04-29T01:56:44.700Z,6.20
2023-04-29T01:59:17.001Z,4.90
2023-04-29T02:01:49.306Z,4.80
2023-04-29T02:04:21.662Z,6.90
2023-04-29T02:06:54.170Z,5.80
2023-04-29T02:09:26.559Z,4.90
2023-04-29T02:11:58.980Z,6.60
2023-04-29T02:14:31.789Z,6.00
2023-04-29T02:17:04.119Z,6.30
2023-04-29T02:19:36.462Z,5.60
2023-04-29T02:22:09.469Z,6.00
2023-04-29T02:24:42.124Z,4.40
2023-04-29T02:27:14.402Z,5.00
2023-04-29T02:29:46.841Z,5.40
2023-04-29T02:32:20.362Z,5.60
2023-04-29T02:34:52.955Z,6.10
2023-04-29T02:37:25.541Z,5.00
2023-04-29T02:39:57.804Z,6.90
2023-04-29T02:42:30.112Z,5.20
2023-04-29T02:45:02.410Z,6.60
2023-04-29T02:47:34.721Z,5.10
2023-04-29T02:50:08.297Z,7.30
2023-04-29T02:52:42.027Z,5.90
2023-04-29T02:55:14.400Z,6.10
2023-04-29T02:57:46.842Z,6.20
2023-04-29T03:00:19.263Z,7.10
2023-04-29T03:02:51.825Z,6.90
2023-04-29T03:05:24.415Z,7.70
2023-04-29T03:07:56.848Z,6.00
2023-04-29T03:10:29.234Z,7.10
2023-04-29T03:13:01.698Z,5.80
2023-04-29T03:15:33.982Z,5.20
2023-04-29T03:18:06.525Z,8.00
2023-04-29T03:20:38.896Z,5.70
2023-04-29T03:23:11.259Z,7.90
2023-04-29T03:25:43.546Z,6.00
2023-04-29T03:28:16.367Z,6.00
2023-04-29T03:30:48.661Z,6.90
2023-04-29T03:33:21.028Z,6.70
2023-04-29T03:35:53.334Z,7.00
2023-04-29T03:38:26.089Z,5.20
2023-04-29T03:40:58.489Z,5.70
2023-04-29T03:43:31.253Z,6.10
2023-04-29T03:46:03.579Z,6.30
2023-04-29T03:48:37.010Z,6.50
2023-04-29T03:51:09.644Z,5.90
2023-04-29T03:53:42.127Z,6.20
2023-04-29T03:56:15.426Z,6.90
2023-04-29T03:58:48.838Z,8.60
2023-04-29T04:01:21.718Z,7.70
2023-04-29T04:03:54.905Z,8.10
2023-04-29T04:06:27.423Z,8.00
2023-04-29T04:08:59.751Z,9.60
2023-04-29T04:11:32.113Z,9.30
2023-04-29T04:14:05.967Z,8.90
2023-04-29T04:16:38.445Z,9.00
2023-04-29T04:19:11.133Z,9.00
2023-04-29T04:21:43.772Z,10.00
2023-04-29T04:24:16.096Z,8.70
2023-04-29T04:26:48.442Z,9.60
2023-04-29T04:29:20.797Z,7.80
2023-04-29T04:31:53.210Z,9.90
2023-04-29T04:34:26.464Z,8.40
2023-04-29T04:36:58.826Z,8.20
2023-04-29T04:39:31.095Z,11.60
2023-04-29T04:42:03.996Z,12.40
2023-04-29T04:44:36.373Z,12.80
2023-04-29T04:47:08.668Z,10.60
2023-04-29T04:49:40.966Z,9.80
2023-04-29T04:52:13.390Z,9.50
2023-04-29T04:54:48.073Z,9.60
2023-04-29T04:57:20.613Z,10.70
2023-04-29T04:59:53.334Z,9.30
2023-04-29T05:02:26.322Z,8.80
2023-04-29T05:05:00.467Z,7.80
2023-04-29T05:07:33.259Z,8.10
2023-04-29T05:10:06.843Z,9.40
2023-04-29T05:12:39.373Z,7.60
2023-04-29T05:15:15.046Z,7.60
2023-04-29T05:17:47.368Z,7.90
2023-04-29T05:20:20.649Z,9.10
2023-04-29T05:22:53.010Z,7.50
2023-04-29T05:25:25.259Z,8.40
2023-04-29T05:27:57.766Z,7.40
2023-04-29T05:30:30.065Z,8.30
2023-04-29T05:33:03.772Z,8.00
2023-04-29T05:35:36.234Z,5.70
2023-04-29T05:38:08.650Z,7.50
2023-04-29T05:40:40.974Z,5.90
2023-04-29T05:43:13.291Z,6.80
2023-04-29T05:45:47.839Z,5.60
2023-04-29T05:48:20.036Z,5.70
2023-04-29T05:50:54.102Z,4.60
2023-04-29T05:53:26.468Z,4.30
2023-04-29T05:55:59.269Z,6.20
2023-04-29T05:58:31.573Z,8.10
2023-04-29T06:01:03.851Z,6.90
2023-04-29T06:03:36.407Z,4.70
2023-04-29T06:06:09.260Z,6.30
2023-04-29T06:08:41.697Z,5.70
2023-04-29T06:11:14.789Z,6.20
2023-04-29T06:13:47.275Z,5.80
2023-04-29T06:16:20.149Z,4.50
2023-04-29T06:18:52.420Z,5.40
2023-04-29T06:21:24.702Z,5.80
2023-04-29T06:23:57.086Z,5.20
2023-04-29T06:26:29.759Z,4.80
2023-04-29T06:29:02.159Z,5.30
2023-04-29T06:31:34.495Z,5.70
2023-04-29T06:34:06.927Z,6.20
2023-04-29T06:36:39.223Z,5.00
2023-04-29T06:39:11.501Z,5.90
2023-04-29T06:41:43.795Z,6.20
2023-04-29T06:44:17.008Z,3.80
2023-04-29T06:46:49.354Z,7.00
2023-04-29T06:49:21.745Z,6.40
2023-04-29T06:51:54.138Z,6.10
2023-04-29T06:54:27.814Z,6.20
2023-04-29T06:57:00.109Z,6.50
2023-04-29T06:59:33.022Z,6.40
2023-04-29T07:02:05.438Z,5.90
2023-04-29T07:04:38.207Z,4.40
2023-04-29T07:07:10.511Z,4.50
2023-04-29T07:09:42.868Z,5.20
2023-04-29T07:12:15.124Z,5.20
2023-04-29T07:14:47.553Z,4.60
2023-04-29T07:17:20.880Z,4.70
2023-04-29T07:19:53.874Z,4.00
2023-04-29T07:22:26.945Z,5.30
2023-04-29T07:25:02.479Z,4.50
2023-04-29T07:27:35.852Z,4.70
2023-04-29T07:30:10.328Z,5.80
2023-04-29T07:32:42.742Z,4.60
2023-04-29T07:35:15.090Z,4.80
2023-04-29T07:37:47.359Z,5.20
2023-04-29T07:40:19.749Z,3.90
2023-04-29T07:42:51.974Z,3.60
2023-04-29T07:45:24.374Z,4.60
2023-04-29T07:47:56.694Z,4.60
2023-04-29T07:50:29.201Z,4.10
2023-04-29T07:53:02.284Z,4.40
2023-04-29T07:55:34.635Z,5.20
2023-04-29T07:58:07.507Z,4.00
2023-04-29T08:00:39.809Z,4.90
2023-04-29T08:03:12.631Z,4.50
2023-04-29T08:05:45.365Z,4.20
2023-04-29T08:08:17.893Z,4.00
2023-04-29T08:10:50.235Z,5.00
2023-04-29T08:13:22.566Z,3.80
2023-04-29T08:15:55.132Z,3.30
2023-04-29T08:18:28.013Z,3.20
2023-04-29T08:21:02.338Z,4.10
2023-04-29T08:23:35.946Z,3.90
2023-04-29T08:26:08.681Z,3.20
2023-04-29T08:28:41.099Z,4.90
2023-04-29T08:31:19.959Z,3.70
2023-04-29T08:33:52.303Z,3.30
2023-04-29T08:36:24.672Z,3.30
2023-04-29T08:38:57.174Z,6.10
2023-04-29T08:41:29.463Z,3.60
2023-04-29T08:44:02.575Z,3.60
2023-04-29T08:46:35.549Z,3.70
2023-04-29T08:49:08.485Z,3.90
2023-04-29T08:51:40.904Z,3.90
2023-04-29T08:54:14.006Z,4.40
2023-04-29T08:56:48.306Z,3.50
2023-04-29T08:59:22.263Z,4.30
2023-04-29T09:01:56.488Z,4.00
2023-04-29T09:04:36.064Z,5.00
2023-04-29T09:07:08.945Z,5.00
2023-04-29T09:09:42.819Z,5.80
2023-04-29T09:12:15.309Z,5.20
2023-04-29T09:14:47.590Z,4.20
2023-04-29T09:17:20.510Z,3.90
2023-04-29T09:19:52.800Z,4.00
2023-04-29T09:22:25.452Z,4.30
2023-04-29T09:25:12.985Z,4.00
2023-04-29T09:27:45.396Z,4.80
2023-04-29T09:30:17.903Z,4.80
2023-04-29T09:33:08.161Z,4.60
2023-04-29T09:35:43.476Z,4.10
2023-04-29T09:38:17.882Z,3.40
2023-04-29T09:43:29.601Z,4.90
2023-04-29T09:46:02.609Z,3.30
2023-04-29T09:48:35.664Z,4.80
2023-04-29T09:51:08.274Z,3.90
2023-04-29T09:53:40.513Z,3.50
2023-04-29T09:56:12.958Z,3.90
2023-04-29T09:58:46.092Z,3.80
2023-04-29T10:01:21.781Z,4.30
2023-04-29T10:03:56.469Z,6.00
2023-04-29T10:06:29.849Z,4.30
2023-04-29T10:09:03.067Z,4.60
2023-04-29T10:11:36.571Z,5.60
2023-04-29T10:14:13.678Z,5.90
2023-04-29T10:16:51.021Z,5.00
2023-04-29T10:19:31.530Z,6.40
2023-04-29T10:22:10.303Z,4.30
2023-04-29T10:24:44.141Z,4.10
2023-04-29T10:27:19.095Z,6.10
2023-04-29T10:29:52.949Z,4.40
2023-04-29T10:32:27.650Z,4.30
2023-04-29T10:35:03.982Z,4.90
2023-04-29T10:37:36.835Z,4.70
2023-04-29T10:40:18.623Z,4.80
2023-04-29T10:42:52.720Z,4.10
2023-04-29T10:45:28.537Z,5.90
2023-04-29T10:48:18.989Z,3.70
2023-04-29T10:51:06.844Z,4.90
2023-04-29T10:53:59.158Z,4.80
2023-04-29T10:56:42.405Z,5.50
2023-04-29T10:59:16.476Z,5.00
2023-04-29T11:01:50.912Z,5.90
2023-04-29T11:04:24.139Z,4.00
2023-04-29T11:06:59.348Z,5.20
2023-04-29T11:09:34.280Z,4.30
2023-04-29T11:12:11.084Z,5.20
2023-04-29T11:14:51.397Z,3.80
2023-04-29T11:17:27.121Z,5.90
2023-04-29T11:20:02.226Z,4.90
2023-04-29T11:22:35.310Z,4.00
2023-04-29T11:25:09.823Z,4.80
2023-04-29T11:27:43.400Z,6.50
2023-04-29T11:30:17.130Z,4.60
2023-04-29T11:32:51.165Z,4.50
2023-04-29T11:35:23.992Z,4.50
2023-04-29T11:37:56.705Z,5.10
2023-04-29T11:40:29.252Z,4.90
2023-04-29T11:43:01.577Z,5.70
2023-04-29T11:45:37.095Z,8.00
2023-04-29T11:50:43.251Z,5.00
2023-04-29T11:53:15.658Z,5.20
2023-04-29T11:55:48.262Z,6.50
2023-04-29T11:58:21.887Z,7.00
2023-04-29T12:00:54.281Z,7.70
2023-04-29T12:03:26.748Z,6.60
2023-04-29T12:06:00.003Z,7.00
2023-04-29T12:08:34.929Z,9.40
2023-04-29T12:11:09.944Z,7.10
2023-04-29T12:13:42.360Z,5.90
2023-04-29T12:16:14.865Z,5.40
2023-04-29T12:18:47.285Z,5.70
2023-04-29T12:21:19.841Z,7.50
2023-04-29T12:23:52.778Z,5.50
2023-04-29T12:26:25.348Z,5.80
2023-04-29T12:29:00.604Z,5.90
2023-04-29T12:31:38.848Z,6.10
2023-04-29T12:34:11.603Z,6.00
2023-04-29T12:36:46.608Z,5.50
2023-04-29T12:39:19.275Z,6.80
2023-04-29T12:41:55.935Z,7.90
2023-04-29T12:44:28.737Z,7.70
2023-04-29T12:47:11.553Z,8.30
2023-04-29T12:49:46.730Z,7.60
2023-04-29T12:52:18.995Z,6.60
2023-04-29T12:54:51.586Z,5.30
2023-04-29T12:57:25.306Z,7.40
2023-04-29T12:59:57.648Z,6.90
2023-04-29T13:02:30.114Z,6.60
2023-04-29T13:05:02.905Z,7.00
2023-04-29T13:07:37.037Z,7.00
2023-04-29T13:10:12.197Z,8.00
2023-04-29T13:12:44.603Z,6.70
2023-04-29T13:15:16.873Z,6.80
2023-04-29T13:17:49.256Z,5.10
2023-04-29T13:20:22.005Z,8.70
2023-04-29T13:22:54.248Z,10.00
2023-04-29T13:25:26.768Z,7.30
2023-04-29T13:27:59.065Z,8.10
2023-04-29T13:30:32.041Z,6.40
2023-04-29T13:33:11.858Z,6.30
2023-04-29T13:35:45.770Z,5.70
2023-04-29T13:38:18.709Z,5.40
2023-04-29T13:40:54.727Z,5.10
2023-04-29T13:43:35.954Z,5.00
2023-04-29T13:46:11.463Z,5.60
2023-04-29T13:49:17.279Z,5.50
2023-04-29T13:52:16.850Z,5.30
2023-04-29T13:54:55.494Z,4.70
2023-04-29T13:59:57.500Z,4.90
2023-04-29T14:02:30.418Z,4.50
2023-04-29T14:05:03.269Z,4.00
2023-04-29T14:07:35.865Z,5.00
2023-04-29T14:10:09.011Z,4.10
2023-04-29T14:12:41.369Z,4.80
2023-04-29T14:15:15.272Z,4.40
2023-04-29T14:17:47.833Z,4.90
2023-04-29T14:20:20.251Z,4.70
2023-04-29T14:22:53.223Z,6.80
2023-04-29T14:25:26.763Z,3.80
2023-04-29T14:28:01.098Z,5.00
2023-04-29T14:30:33.368Z,4.10
2023-04-29T14:33:05.804Z,3.80
2023-04-29T14:35:38.288Z,4.80
2023-04-29T14:38:10.728Z,3.60
2023-04-29T14:40:43.136Z,3.10
2023-04-29T14:43:15.888Z,3.90
2023-04-29T14:45:48.377Z,3.70
2023-04-29T14:48:20.747Z,3.40
2023-04-29T14:50:53.072Z,3.20
2023-04-29T14:53:25.426Z,4.20
2023-04-29T14:55:57.845Z,3.40
2023-04-29T14:58:30.194Z,3.40
2023-04-29T15:01:02.712Z,3.80
2023-04-29T15:06:12.788Z,3.40
2023-04-29T15:08:45.224Z,2.70
2023-04-29T15:11:17.601Z,4.10
2023-04-29T15:13:50.022Z,4.10
2023-04-29T15:16:22.386Z,2.20
2023-04-29T15:18:54.657Z,3.10
2023-04-29T15:21:27.233Z,2.80
2023-04-29T15:23:59.521Z,4.40
2023-04-29T15:26:31.900Z,4.10
2023-04-29T15:29:04.306Z,2.50
2023-04-29T15:31:36.757Z,2.80
2023-04-29T15:34:09.355Z,3.00
2023-04-29T15:36:41.801Z,2.20
2023-04-29T15:39:14.254Z,2.80
2023-04-29T15:41:46.436Z,2.60
2023-04-29T15:44:18.727Z,2.70
2023-04-29T15:46:51.179Z,2.50
2023-04-29T15:49:24.791Z,3.70
2023-04-29T15:51:57.230Z,3.40
2023-04-29T15:54:29.500Z,3.70
2023-04-29T15:57:03.565Z,3.10
2023-04-29T15:59:36.058Z,3.60
2023-04-29T16:02:11.055Z,3.90
2023-04-29T16:04:43.439Z,3.00
2023-04-29T16:07:15.775Z,2.60
2023-04-29T16:09:47.998Z,2.70
2023-04-29T16:12:20.839Z,2.70
2023-04-29T16:14:53.249Z,4.00
2023-04-29T16:17:25.520Z,4.10
2023-04-29T16:19:58.277Z,7.10
2023-04-29T16:22:31.298Z,3.10
2023-04-29T16:25:04.240Z,3.90
2023-04-29T16:27:36.595Z,3.20
2023-04-29T16:30:11.085Z,4.50
2023-04-29T16:32:44.198Z,3.30
2023-04-29T16:35:16.763Z,3.30
2023-04-29T16:37:49.546Z,3.80
2023-04-29T16:40:24.591Z,3.80
2023-04-29T16:42:57.986Z,4.10
2023-04-29T16:45:30.484Z,4.00
2023-04-29T16:48:03.318Z,2.80
2023-04-29T16:50:36.446Z,4.30
2023-04-29T16:53:08.790Z,3.60
2023-04-29T16:55:41.214Z,3.70
2023-04-29T16:58:13.500Z,4.10
2023-04-29T17:00:45.838Z,4.40
2023-04-29T17:03:18.447Z,3.50
2023-04-29T17:05:51.467Z,3.80
2023-04-29T17:08:23.935Z,4.50
2023-04-29T17:10:56.257Z,5.40
2023-04-29T17:13:28.769Z,5.10
2023-04-29T17:16:01.272Z,4.00
2023-04-29T17:18:33.645Z,4.50
2023-04-29T17:21:06.367Z,4.40
2023-04-29T17:23:38.867Z,4.30
2023-04-29T17:26:11.074Z,4.00
2023-04-29T17:28:43.451Z,5.20
2023-04-29T17:31:15.964Z,4.60
2023-04-29T17:33:55.234Z,3.80
2023-04-29T17:36:28.060Z,4.50
2023-04-29T17:39:00.502Z,5.30
2023-04-29T17:41:34.066Z,6.20
2023-04-29T17:44:08.016Z,5.70
2023-04-29T17:46:42.780Z,5.10
2023-04-29T17:49:15.506Z,4.70
2023-04-29T17:51:47.968Z,6.20
2023-04-29T17:54:20.782Z,6.40
2023-04-29T17:56:53.074Z,6.30
2023-04-29T17:59:25.652Z,5.70
2023-04-29T18:01:58.707Z,8.50
2023-04-29T18:04:30.990Z,9.70
2023-04-29T18:07:03.303Z,10.50
2023-04-29T18:09:36.030Z,8.30
2023-04-29T18:12:08.668Z,8.30
2023-04-29T18:14:41.292Z,9.80
2023-04-29T18:17:13.822Z,8.30
2023-04-29T18:19:50.578Z,8.10
2023-04-29T18:22:22.768Z,9.80
2023-04-29T18:24:54.985Z,8.50
2023-04-29T18:27:27.395Z,10.50
2023-04-29T18:29:59.762Z,10.10
2023-04-29T18:32:31.968Z,9.80
2023-04-29T18:35:05.059Z,12.90
2023-04-29T18:37:37.430Z,9.80
2023-04-29T18:40:11.980Z,10.50
2023-04-29T18:42:44.688Z,12.50
2023-04-29T18:45:16.992Z,10.10
2023-04-29T18:47:49.272Z,10.20
2023-04-29T18:50:21.710Z,8.00
2023-04-29T18:52:54.074Z,6.60
2023-04-29T18:55:26.359Z,7.90
2023-04-29T18:57:58.723Z,7.70
2023-04-29T19:00:31.269Z,8.20
2023-04-29T19:03:03.682Z,8.10
2023-04-29T19:05:36.271Z,10.70
2023-04-29T19:08:09.216Z,8.50
2023-04-29T19:10:41.439Z,8.10
2023-04-29T19:13:13.900Z,12.80
2023-04-29T19:15:50.746Z,8.00
2023-04-29T19:18:23.896Z,10.50
2023-04-29T19:20:56.876Z,9.50
2023-04-29T19:23:29.088Z,7.90
2023-04-29T19:26:01.441Z,10.30
2023-04-29T19:28:33.899Z,8.20
2023-04-29T19:31:07.139Z,11.30
2023-04-29T19:33:39.745Z,12.10
2023-04-29T19:36:14.427Z,11.80
2023-04-29T19:38:47.263Z,10.60
2023-04-29T19:41:20.943Z,11.30
2023-04-29T19:43:53.596Z,9.70
2023-04-29T19:46:26.022Z,10.50
2023-04-29T19:48:58.370Z,13.60
2023-04-29T19:51:31.088Z,15.10
2023-04-29T19:54:03.510Z,13.60
2023-04-29T19:56:36.000Z,12.50
2023-04-29T19:59:08.431Z,13.80
2023-04-29T20:01:41.136Z,14.30
2023-04-29T20:04:13.358Z,16.10
2023-04-29T20:06:46.334Z,13.40
2023-04-29T20:09:18.868Z,13.40
2023-04-29T20:11:51.238Z,10.80
2023-04-29T20:14:23.430Z,13.40
2023-04-29T20:16:57.596Z,11.70
2023-04-29T20:22:03.791Z,13.70
2023-04-29T20:24:36.156Z,12.00
2023-04-29T20:27:08.513Z,12.50
2023-04-29T20:29:41.516Z,13.10
2023-04-29T20:32:13.945Z,11.90
2023-04-29T20:34:46.410Z,13.40
2023-04-29T20:37:19.905Z,13.60
2023-04-29T20:39:53.012Z,13.50
2023-04-29T20:42:25.554Z,11.30
2023-04-29T20:44:57.999Z,10.40
2023-04-29T20:47:30.314Z,11.00
2023-04-29T20:50:04.997Z,10.60
2023-04-29T20:52:38.178Z,11.90
2023-04-29T20:55:10.906Z,10.40
2023-04-29T20:57:43.244Z,8.90
2023-04-29T21:00:16.765Z,13.20
2023-04-29T21:02:49.110Z,12.00
2023-04-29T21:05:21.587Z,11.10
2023-04-29T21:07:54.141Z,11.30
2023-04-29T21:10:26.740Z,11.70
2023-04-29T21:12:59.709Z,11.50
2023-04-29T21:15:32.226Z,13.40
2023-04-29T21:18:06.061Z,12.10
2023-04-29T21:20:38.454Z,11.80
2023-04-29T21:23:10.811Z,10.40
2023-04-29T21:25:43.053Z,12.70
2023-04-29T21:28:16.948Z,8.50
2023-04-29T21:30:49.705Z,12.20
2023-04-29T21:33:21.956Z,12.30
2023-04-29T21:35:56.255Z,11.90
2023-04-29T21:38:28.952Z,9.60
2023-04-29T21:41:02.886Z,13.90
2023-04-29T21:43:36.280Z,12.10
2023-04-29T21:46:09.918Z,11.60
2023-04-29T21:48:42.474Z,11.40
2023-04-29T21:51:15.010Z,10.40
2023-04-29T21:53:47.398Z,12.60
2023-04-29T21:56:20.022Z,11.60
2023-04-29T21:58:52.411Z,13.10
2023-04-29T22:01:39.877Z,11.60
2023-04-29T22:04:12.354Z,15.00
2023-04-29T22:06:44.837Z,11.50
2023-04-29T22:09:17.451Z,11.30
2023-04-29T22:11:49.721Z,12.00
2023-04-29T22:14:22.437Z,13.30
2023-04-29T22:16:54.700Z,14.20
2023-04-29T22:19:30.198Z,10.70
2023-04-29T22:22:02.743Z,11.80
2023-04-29T22:24:35.210Z,11.80
2023-04-29T22:27:07.404Z,13.90
2023-04-29T22:29:39.698Z,12.60
2023-04-29T22:32:12.112Z,12.50
2023-04-29T22:34:44.529Z,12.70
2023-04-29T22:37:17.379Z,15.60
2023-04-29T22:39:50.539Z,11.10
2023-04-29T22:42:22.842Z,12.20
2023-04-29T22:44:55.214Z,13.00
2023-04-29T22:47:27.591Z,12.90
2023-04-29T22:49:59.833Z,11.90
2023-04-29T22:52:32.914Z,11.70
2023-04-29T22:55:05.493Z,13.50
2023-04-29T22:57:37.744Z,12.60
2023-04-29T23:00:13.209Z,14.20
2023-04-29T23:02:45.772Z,12.60
2023-04-29T23:05:18.189Z,13.40
2023-04-29T23:07:50.432Z,13.60
2023-04-29T23:10:22.785Z,12.30
2023-04-29T23:12:55.168Z,12.80
2023-04-29T23:15:29.442Z,11.00
2023-04-29T23:18:01.937Z,12.10
2023-04-29T23:20:34.464Z,11.40
2023-04-29T23:23:06.742Z,12.00
2023-04-29T23:25:39.166Z,13.50
2023-04-29T23:28:11.583Z,11.80
2023-04-29T23:30:43.953Z,12.20
2023-04-29T23:33:16.350Z,12.10
2023-04-29T23:35:52.586Z,11.60
2023-04-29T23:38:24.915Z,14.00
2023-04-29T23:40:57.233Z,13.60
2023-04-29T23:43:30.048Z,13.20
2023-04-29T23:46:02.598Z,10.90
2023-04-29T23:48:34.860Z,12.80
2023-04-29T23:51:07.371Z,10.40
2023-04-29T23:53:40.316Z,10.80
2023-04-29T23:56:13.134Z,9.70
2023-04-29T23:58:45.311Z,12.40
